Tiempo atmosférico en la estación meteorológica de Sos del Rey Católico, Zaragoza (630 m.)



Fecha
DESCASC
Temp. máxima en grados centígrados (hora)
DESCASC
Temp. mínima en grados centígrados (hora)
DESCASC
Temp. media en grados centígrados
DESCASC
Racha de viento máxima en m/sg (hora)
DESCASC
Velocidad máxima media en intervalos de 10 minutos(hora)
DESCASC
Precipitaciones diarias en mm
DESCASC
Precipitaciones de 00:00 a 06:00 en mm
DESCASC
Precipitaciones de 06:00 a 12:00 en mm
DESCASC
Precipitaciones de 12:00 a 18:00 en mm
DESCASC
Precipitaciones de 18:00 a 24:00 en mm
DESCASC
25-04-2019 14.2 (14:20) 7.1 (07:40) 10.6 12.5 (01:30) 6.67 (04:00) 7.3 5.1 0.2 2 0
24-04-2019 9.9 (22:40) 4.9 (04:00) 7.4 16.39 (18:00) 8.89 (18:50) 21.5 3.2 0.1 1.6 16.6
23-04-2019 16.9 (13:40) 7.6 (22:50) 12.2 10.56 (16:30) 6.39 (11:20) 2.5 0 0 0.9 1.6
22-04-2019 16.9 (17:50) 6 (00:00) 11.4 6.11 (15:10) 2.5 (16:00) 0 0 0 0 0
21-04-2019 12.6 (19:00) 7.5 (00:00) 10.1 4.44 (00:10) 2.22 (02:30) 0.5 0 0.5 0 0
20-04-2019 20.9 (17:00) 7.2 (00:00) 14 9.44 (20:40) 4.72 (20:40) 1.1 0 0 0 1.1
19-04-2019 20 (16:30) 9.4 (00:00) 14.7 11.11 (03:20) 4.72 (02:00) 0.5 0.5 0 0 0
18-04-2019 18 (14:40) 8.3 (00:00) 13.2 12.78 (14:50) 6.67 (15:20) 0.4 0 0.3 0.1 0
17-04-2019 19.8 (17:30) 10.1 (00:00) 14.9 14.17 (12:30) 8.33 (00:20) 0 0 0 0 0
16-04-2019 18.4 (16:30) 7.4 (00:00) 12.9 13.06 (23:50) 7.78 (23:59) 4 4 0 0 0
15-04-2019 20.1 (15:30) 7.5 (00:00) 13.8 14.72 (19:10) 7.78 (19:40) 11.6 0 0 0 11.6
14-04-2019 20.1 (16:20) 5.9 (00:00) 13 10.83 (18:20) 5 (19:00) 0 0 0 0 0
13-04-2019 20.2 (17:00) 0.4 (00:00) 10.3 6.11 (16:00) 3.33 (17:30) 0 0 0 0 0
12-04-2019 14.9 (16:50) 6.2 (07:30) 10.5 13.89 (01:40) 7.22 (15:40) 0 0 0 0 0
11-04-2019 10.9 (15:10) 5.4 (00:00) 8.1 11.39 (17:50) 6.67 (11:30) 0 0 0 0 0
10-04-2019 13.7 (15:50) 5.4 (00:00) 9.5 12.5 (16:50) 7.22 (17:50) 1.1 1.1 0 0 0
09-04-2019 13.9 (15:10) 3 (00:00) 8.4 6.94 (23:00) 4.17 (18:00) 9 0 0 0.6 8.4
08-04-2019 13.7 (17:00) 6 (00:00) 9.8 8.61 (07:40) 3.89 (18:30) 1.8 0.3 1.5 0 0
07-04-2019 11.4 (18:10) 4.1 (00:00) 7.7 7.22 (03:10) 3.89 (03:10) 3.6 3.4 0.2 0 0
06-04-2019 11 (14:00) 3 (00:00) 7 10 (15:10) 5.28 (18:30) 1.2 1.1 0 0.1 0
05-04-2019 10.3 (15:20) 3.3 (00:00) 6.8 12.22 (12:10) 7.22 (11:30) 6.1 0 1.2 0 4.9
04-04-2019 11.2 (17:40) -1.6 (-00:0) 4.8 7.5 (18:20) 3.89 (22:30) 0 0 0 0 0
03-04-2019 9.2 (16:20) 2.2 (23:59) 5.7 11.67 (17:00) 6.67 (17:00) 1.5 1.3 0.2 0 0
02-04-2019 16.1 (16:00) 5.4 (00:00) 10.8 7.78 (14:30) 4.44 (19:20) 0 0 0 0 0
01-04-2019 12.2 (19:10) 6.5 (00:00) 9.3 4.17 (02:50) 2.5 (02:50) 4.3 2.7 1.2 0 0.4
31-03-2019 14.5 (14:10) 2.8 (00:00) 8.6 6.94 (19:10) 4.17 (18:40) 0 0 0 0 0
30-03-2019 17.3 (15:40) 2.8 (00:00) 10 10.83 (00:20) 5.56 (00:10) 0 0 0 0 0
29-03-2019 16.9 (15:20) 2 (00:00) 9.4 13.33 (22:10) 7.22 (23:30) 0 0 0 0 0
28-03-2019 17.8 (15:10) 2.7 (00:00) 10.2 6.11 (00:20) 3.06 (15:30) 0 0 0 0 0
27-03-2019 18.1 (14:40) 0.8 (00:00) 9.5 9.72 (16:20) 5 (18:10) 0 0 0 0 0

Gráficas

Temp. máximas Temp. mínimas Temp. medias Precipitaciones Rachas de viento máximas Velocidades máximas media en intervalos de 10 minutos

Datos horarios

Fecha y hora oficial Temperatura (ºC) Velocidad del viento (km/h) Dirección del viento Racha (km/h) Dirección de racha Precipitación (mm) Presión (hPa) Tendencia (hPa) Humedad (%)
2019-04-25 23:00:00 8.5 11 Sur 16 Sudoeste 0 -- -- 80
2019-04-25 22:00:00 7.8 12 Sudoeste 16 Sudoeste 0 -- -- 85
2019-04-25 21:00:00 9.5 2 Sudoeste 20 Sur 0 -- -- 76
2019-04-25 20:00:00 10.5 12 Sur 25 Sur 0 -- -- 73
2019-04-25 19:00:00 11.1 13 Sur 23 Sur 0 -- -- 74
2019-04-25 18:00:00 9.1 14 Sur 28 Sur 0.7 -- -- 86
2019-04-25 17:00:00 10.6 10 Sur 30 Oeste 1.3 -- -- 77
2019-04-25 16:00:00 11.8 17 Sur 42 Sur 0 -- -- 53
2019-04-25 15:00:00 13.3 20 Sur 36 Sur 0 -- -- 50
2019-04-25 14:00:00 13.1 15 Sur 36 Sur 0 -- -- 55
2019-04-25 13:00:00 13.3 19 Sur 35 Sudoeste 0 -- -- 59
2019-04-25 12:00:00 11.9 12 Sur 33 Sudoeste 0 -- -- 69
2019-04-25 11:00:00 10.1 13 Sur 28 Sur 0 -- -- 69
2019-04-25 10:00:00 9.2 13 Sur 28 Sudoeste 0 -- -- 74
2019-04-25 09:00:00 9.1 12 Sur 24 Sudoeste 0 -- -- 88
2019-04-25 08:00:00 7.6 10 Sur 22 Sudoeste 0 -- -- 97
2019-04-25 07:00:00 8 12 Sur 27 Sudoeste 0.2 -- -- 95
2019-04-25 06:00:00 8.9 13 Sur 25 Sur 1.1 -- -- 97
2019-04-25 05:00:00 9.8 15 Sur 41 Sur 1.3 -- -- 98
2019-04-25 04:00:00 10.2 24 Sur 42 Sur 2.2 -- -- 96
2019-04-25 03:00:00 10.6 20 Sur 42 Sudoeste 0.1 -- -- 90
2019-04-25 02:00:00 10.5 19 Sudoeste 45 Sudoeste 0 -- -- 93
2019-04-25 01:00:00 9.4 12 Sur 32 Sudoeste 0.4 -- -- 96
2019-04-25 00:00:00 9.5 10 Sur 28 Sur 0.2 -- -- 99
2019-04-24 23:00:00 9.7 15 Sur 33 Sur 6.8 -- -- 99
2019-04-24 22:00:00 9 9 Sur 54 Sur 6.2 -- -- 97
2019-04-24 21:00:00 9 29 Sur 55 Sur 2.6 -- -- 94
2019-04-24 20:00:00 8.6 27 Sur 48 Sur 0.8 -- -- 92
2019-04-24 19:00:00 9.1 27 Sur 54 Sudoeste 0 -- -- 81
2019-04-24 18:00:00 9.2 29 Sudoeste 59 Sudoeste 0.1 -- -- 78
2019-04-24 17:00:00 8.2 22 Sudoeste 50 Sudoeste 0 -- -- 84
2019-04-24 16:00:00 8.4 19 Sur 49 Sur 0 -- -- 78
2019-04-24 15:00:00 7.8 21 Sudoeste 46 Sudoeste 0 -- -- 83
2019-04-24 14:00:00 7.6 28 Sur 48 Sudoeste 0.3 -- -- 83
2019-04-24 13:00:00 6.3 21 Sur 44 Sudoeste 1.2 -- -- 87
2019-04-24 12:00:00 7.1 20 Sur 36 Sudoeste 0 -- -- 76
2019-04-24 11:00:00 7.7 15 Sur 33 Sudoeste 0 -- -- 77
2019-04-24 10:00:00 7.2 15 Sur 38 Sudoeste 0 -- -- 85
2019-04-24 09:00:00 7.5 14 Sur 28 Sudoeste 0.1 -- -- 87
2019-04-24 08:00:00 5.7 6 Sur 18 Sudoeste 0 -- -- 99
2019-04-24 07:00:00 5.2 10 Sur 17 Sur 0 -- -- 99
2019-04-24 06:00:00 5.6 9 Sur 15 Sur 0 -- -- 99
2019-04-24 05:00:00 5.3 6 Sur 12 Sudoeste 0.5 -- -- 98
2019-04-24 04:00:00 4.9 12 Sudoeste 35 Sudoeste 2.7 -- -- 92
2019-04-24 03:00:00 7 10 Sur 22 Sur 0 -- -- 85
2019-04-24 02:00:00 7.1 14 Sur 23 Sur 0 -- -- 85
2019-04-24 01:00:00 7.5 11 Sur 23 Sur 0 -- -- 87
2019-04-24 00:00:00 8.3 9 Sur 23 Sur 0 -- -- 90
2019-04-23 23:00:00 7.9 7 Sur 13 Sur 0.1 -- -- 96
2019-04-23 22:00:00 8.1 7 Sudoeste 12 Sudoeste 0 -- -- 96
2019-04-23 21:00:00 8.5 5 Sur 30 Oeste 0.6 -- -- 94
2019-04-23 20:00:00 9.7 15 Sudoeste 35 Oeste 0.9 -- -- 88
2019-04-23 19:00:00 12.2 5 Sudoeste 19 Sudoeste 0 -- -- 82
2019-04-23 18:00:00 12.1 7 Sur 17 Sur 0 -- -- 81
2019-04-23 17:00:00 10.6 10 Sur 38 Sudoeste 0.9 -- -- 86
2019-04-23 16:00:00 14.4 18 Sudoeste 36 Sur 0 -- -- 67
2019-04-23 15:00:00 13.9 18 Sudoeste 36 Sur 0 -- -- 67
2019-04-23 14:00:00 14.7 20 Sur 35 Sudoeste 0 -- -- 60
2019-04-23 13:00:00 15.8 16 Sudoeste 32 Sudoeste 0 -- -- 64
2019-04-23 12:00:00 14.3 18 Sur 37 Sudoeste 0 -- -- 68
2019-04-23 11:00:00 14.6 21 Sudoeste 36 Sur 0 -- -- 69
2019-04-23 10:00:00 12.6 19 Sur 33 Sur 0 -- -- 75
2019-04-23 09:00:00 12.3 6 Sudoeste 21 Sudoeste 0 -- -- 77
2019-04-23 08:00:00 10.9 0 Calma 13 Sudoeste 0 -- -- 78
2019-04-23 07:00:00 10.9 6 Sudoeste 21 Sur 0 -- -- 77
2019-04-23 06:00:00 11.3 10 Sur 19 Sudoeste 0 -- -- 76
2019-04-23 05:00:00 11.2 4 Sudoeste 24 Sudoeste 0 -- -- 74
2019-04-23 04:00:00 11.7 12 Sudoeste 28 Sudoeste 0 -- -- 73
2019-04-23 03:00:00 11.6 15 Sur 29 Sur 0 -- -- 72
2019-04-23 02:00:00 11.8 12 Sur 26 Sur 0 -- -- 72
2019-04-23 01:00:00 11.8 9 Sur 21 Sur 0 -- -- 70
2019-04-23 00:00:00 12 4 Sur 13 Sudoeste 0 -- -- 70
2019-04-22 23:00:00 12.3 4 Sur 10 Sur 0 -- -- 68
2019-04-22 22:00:00 12.8 5 Sudoeste 17 Sudoeste 0 -- -- 65
2019-04-22 21:00:00 13 6 Sur 17 Sur 0 -- -- 58
2019-04-22 20:00:00 13.7 8 Sur 19 Sudoeste 0 -- -- 54
2019-04-22 19:00:00 14.9 8 Sudoeste 16 Sudoeste 0 -- -- 51
2019-04-22 18:00:00 16.4 5 Oeste 16 Oeste 0 -- -- 48
2019-04-22 17:00:00 15.9 8 Sudoeste 16 Sudoeste 0 -- -- 51
2019-04-22 16:00:00 15.7 9 Sudoeste 22 Oeste 0 -- -- 51
2019-04-22 15:00:00 15.3 8 Sudoeste 15 Oeste 0 -- -- 52
2019-04-22 14:00:00 14.7 3 Oeste 8 Noroeste 0 -- -- 70
2019-04-22 13:00:00 13.6 0 Calma 14 Noroeste 0 -- -- 76
2019-04-22 12:00:00 13.5 8 Noroeste 12 Noroeste 0 -- -- 80
2019-04-22 11:00:00 11.7 6 Noroeste 9 Noroeste 0 -- -- 88
2019-04-22 10:00:00 10.4 2 Noroeste 5 Oeste 0 -- -- 99
2019-04-22 09:00:00 8.1 0 Calma 3 Sudoeste 0 -- -- 99
2019-04-22 08:00:00 6.4 0 Calma 4 Sur 0 -- -- 99
2019-04-22 07:00:00 6.2 2 Sudoeste 4 Sur 0 -- -- 98
2019-04-22 06:00:00 7 2 Sudoeste 8 Sur 0 -- -- 96
2019-04-22 05:00:00 7.6 2 Sudoeste 5 Oeste 0 -- -- 95
2019-04-22 04:00:00 8.3 0 Calma 3 Sur 0 -- -- 92
2019-04-22 03:00:00 8.7 0 Calma 8 Sudoeste 0 -- -- 90
2019-04-22 02:00:00 8.9 2 Sudoeste 6 Sur 0 -- -- 88
2019-04-22 01:00:00 9.7 0 Calma 5 Sur 0 -- -- 84
2019-04-22 00:00:00 10.4 2 Noroeste 6 Noroeste 0 -- -- 79
2019-04-21 23:00:00 11.2 3 Noroeste 12 Noroeste 0 -- -- 75
2019-04-21 22:00:00 11.4 4 Noroeste 7 Noroeste 0 -- -- 74
2019-04-21 21:00:00 11.6 0 Calma 7 Noroeste 0 -- -- 72
2019-04-21 20:00:00 12.2 3 Noroeste 13 Noroeste 0 -- -- 65
2019-04-21 19:00:00 12.6 5 Noroeste 12 Norte 0 -- -- 66
2019-04-21 18:00:00 12.1 7 Noroeste 12 Noroeste 0 -- -- 72
2019-04-21 17:00:00 11.7 5 Noroeste 10 Noroeste 0 -- -- 76
2019-04-21 16:00:00 11.7 3 Noroeste 8 Noroeste 0 -- -- 81
2019-04-21 15:00:00 11 2 Noroeste 9 Noroeste 0 -- -- 84
2019-04-21 14:00:00 10.8 4 Noroeste 9 Noroeste 0 -- -- 84
2019-04-21 13:00:00 10.9 3 Noroeste 10 Noroeste 0 -- -- 87
2019-04-21 12:00:00 9.6 4 Noroeste 10 Noroeste 0 -- -- 93
2019-04-21 11:00:00 9.4 3 Noroeste 8 Norte 0 -- -- 99
2019-04-21 10:00:00 8.5 3 Oeste 5 Noroeste 0 -- -- 99
2019-04-21 09:00:00 7.7 0 Calma 5 Noroeste 0 -- -- 99
2019-04-21 08:00:00 7.6 0 Calma 10 Noroeste 0.1 -- -- 99
2019-04-21 07:00:00 8.1 4 Noroeste 7 Noroeste 0.4 -- -- 97
2019-04-21 06:00:00 8.4 0 Calma 5 Sur 0 -- -- 95
2019-04-21 05:00:00 8.4 2 Sur 8 Sudoeste 0 -- -- 93
2019-04-21 04:00:00 8.7 3 Sudoeste 11 Sudoeste 0 -- -- 91
2019-04-21 03:00:00 8.9 0 Calma 15 Sur 0 -- -- 90
2019-04-21 02:00:00 9.1 6 Sur 14 Sur 0 -- -- 91
2019-04-21 01:00:00 9.6 5 Sudoeste 16 Sudoeste 0 -- -- 91
2019-04-21 00:00:00 9.9 4 Sudoeste 21 Sur 0 -- -- 92
2019-04-20 23:00:00 10.1 14 Sur 26 Sur 0.3 -- -- 92
2019-04-20 22:00:00 11.8 6 Sur 21 Sudoeste 0.8 -- -- 78
2019-04-20 21:00:00 15.1 8 Sudoeste 34 Sur 0 -- -- 47
2019-04-20 20:00:00 16.4 13 Sur 29 Sudoeste 0 -- -- 45
2019-04-20 19:00:00 17.9 15 Sur 27 Sur 0 -- -- 41
2019-04-20 18:00:00 18.6 11 Sudoeste 28 Sudoeste 0 -- -- 41
2019-04-20 17:00:00 20.2 9 Sudoeste 22 Oeste 0 -- -- 40
2019-04-20 16:00:00 20.5 2 Sudoeste 17 Noroeste 0 -- -- 44
2019-04-20 15:00:00 19.1 9 Noroeste 17 Norte 0 -- -- 47
2019-04-20 14:00:00 18.4 9 Noroeste 19 Norte 0 -- -- 47
2019-04-20 13:00:00 17.9 7 Noroeste 14 Noroeste 0 -- -- 44
2019-04-20 12:00:00 15.5 4 Noroeste 8 Noroeste 0 -- -- 52
2019-04-20 11:00:00 13.4 3 Noroeste 8 Norte 0 -- -- 67
2019-04-20 10:00:00 12.4 0 Calma 5 Noroeste 0 -- -- 75
2019-04-20 09:00:00 10.8 0 Calma 5 Sudoeste 0 -- -- 77
2019-04-20 08:00:00 9 2 Sur 10 Sudoeste 0 -- -- 75
2019-04-20 07:00:00 7.5 4 Sur 9 Sudoeste 0 -- -- 73
2019-04-20 06:00:00 7.7 0 Calma 8 Sudoeste 0 -- -- 70
2019-04-20 05:00:00 8.1 7 Sudoeste 11 Sudoeste 0 -- -- 68
2019-04-20 04:00:00 9.2 4 Sudoeste 8 Sudoeste 0 -- -- 65
2019-04-20 03:00:00 9.8 2 Sudoeste 9 Sudoeste 0 -- -- 62
2019-04-20 02:00:00 10.6 0 Calma 9 Sur 0 -- -- 56
2019-04-20 01:00:00 12.2 2 Sur 10 Norte 0 -- -- 49
2019-04-20 00:00:00 14.7 9 Sur 32 Sur 0 -- -- 44
2019-04-19 23:00:00 15.2 12 Sur 28 Sur 0 -- -- 44
2019-04-19 22:00:00 15.7 14 Sur 31 Sur 0 -- -- 47
2019-04-19 21:00:00 16 14 Sur 30 Sur 0 -- -- 46
2019-04-19 20:00:00 16.7 10 Sur 21 Sur 0 -- -- 46
2019-04-19 19:00:00 17.9 9 Sur 23 Sur 0 -- -- 45
2019-04-19 18:00:00 17.9 14 Sur 26 Sur 0 -- -- 48
2019-04-19 17:00:00 19.5 3 Noroeste 13 Noroeste 0 -- -- 48
2019-04-19 16:00:00 19 5 Noroeste 10 Norte 0 -- -- 48
2019-04-19 15:00:00 16.7 5 Noroeste 12 Norte 0 -- -- 53
2019-04-19 14:00:00 15.6 6 Norte 13 Norte 0 -- -- 67
2019-04-19 13:00:00 14.5 8 Norte 17 Norte 0 -- -- 72
2019-04-19 12:00:00 14.3 7 Noroeste 10 Norte 0 -- -- 69
2019-04-19 11:00:00 12.9 2 Noroeste 7 Norte 0 -- -- 80
2019-04-19 10:00:00 11.3 4 Noroeste 11 Noroeste 0 -- -- 85
2019-04-19 09:00:00 10.1 0 Calma 8 Norte 0 -- -- 87
2019-04-19 08:00:00 9.7 3 Noroeste 9 Noroeste 0 -- -- 85
2019-04-19 07:00:00 9.4 5 Oeste 12 Noroeste 0 -- -- 84
2019-04-19 06:00:00 10.3 8 Sur 21 Sur 0 -- -- 72
2019-04-19 05:00:00 11.3 10 Sur 28 Oeste 0 -- -- 67
2019-04-19 04:00:00 12.9 12 Sudoeste 40 Sur 0.3 -- -- 59
2019-04-19 03:00:00 11.4 9 Sur 33 Oeste 0.2 -- -- 62
2019-04-19 02:00:00 12.1 17 Sudoeste 39 Sudoeste 0 -- -- 55
2019-04-19 01:00:00 13.2 10 Sur 26 Sudoeste 0 -- -- 51
2019-04-19 00:00:00 13.8 13 Sudoeste 31 Sudoeste 0 -- -- 55
2019-04-18 23:00:00 13.7 10 Sudoeste 19 Sudoeste 0 -- -- 59
2019-04-18 22:00:00 14.2 9 Sur 26 Sur 0 -- -- 57
2019-04-18 21:00:00 14.5 17 Sur 32 Sudoeste 0 -- -- 55
2019-04-18 20:00:00 14.6 6 Sudoeste 29 Sur 0 -- -- 55
2019-04-18 19:00:00 14.9 14 Sur 33 Sudoeste 0 -- -- 55
2019-04-18 18:00:00 15.5 17 Sur 36 Sur 0 -- -- 54
2019-04-18 17:00:00 16.1 16 Sudoeste 35 Oeste 0 -- -- 52
2019-04-18 16:00:00 16.7 20 Sur 39 Sudoeste 0 -- -- 54
2019-04-18 15:00:00 17 23 Sudoeste 46 Sudoeste 0.1 -- -- 54
2019-04-18 14:00:00 16.9 16 Sur 32 Sudoeste 0 -- -- 59
2019-04-18 13:00:00 15 15 Sudoeste 28 Sudoeste 0 -- -- 68
2019-04-18 12:00:00 11.5 2 Sudoeste 26 Sudoeste 0.3 -- -- 81
2019-04-18 11:00:00 12.7 8 Sudoeste 21 Sur 0 -- -- 67
2019-04-18 10:00:00 12.7 17 Sur 32 Sur 0 -- -- 70
2019-04-18 09:00:00 11.7 7 Sur 13 Sudoeste 0 -- -- 80
2019-04-18 08:00:00 8.5 5 Sudoeste 12 Sudoeste 0 -- -- 88
2019-04-18 07:00:00 8.7 5 Sur 10 Sudoeste 0 -- -- 83
2019-04-18 06:00:00 10.1 0 Calma 24 Sur 0 -- -- 73
2019-04-18 05:00:00 11.1 10 Sur 33 Sur 0 -- -- 69
2019-04-18 04:00:00 12.1 18 Sudoeste 40 Sudoeste 0 -- -- 63
2019-04-18 03:00:00 13.1 7 Sudoeste 21 Noroeste 0 -- -- 59
2019-04-18 02:00:00 13.1 4 Sudoeste 33 Sur 0 -- -- 58
2019-04-18 01:00:00 12.8 11 Sudoeste 36 Sur 0 -- -- 62
2019-04-18 00:00:00 13.6 15 Sur 28 Sudoeste 0 -- -- 65
2019-04-17 23:00:00 14.3 3 Noroeste 21 Sudoeste 0 -- -- 65
2019-04-17 22:00:00 15.4 6 Sur 24 Sur 0 -- -- 61
2019-04-17 21:00:00 15.7 7 Sudoeste 29 Sur 0 -- -- 59
2019-04-17 20:00:00 16.9 9 Sudoeste 28 Sudoeste 0 -- -- 55
2019-04-17 19:00:00 17.9 13 Sudoeste 32 Sudoeste 0 -- -- 52
2019-04-17 18:00:00 18.8 15 Sudoeste 39 Sudoeste 0 -- -- 49
2019-04-17 17:00:00 18.8 22 Sudoeste 47 Sudoeste 0 -- -- 47
2019-04-17 16:00:00 19.5 21 Sur 39 Sudoeste 0 -- -- 45
2019-04-17 15:00:00 17.6 23 Sudoeste 45 Sudoeste 0 -- -- 49
2019-04-17 14:00:00 16.7 18 Sudoeste 42 Sudoeste 0 -- -- 51
2019-04-17 13:00:00 16.4 16 Sudoeste 51 Sudoeste 0 -- -- 52
2019-04-17 12:00:00 16.1 14 Sudoeste 43 Sudoeste 0 -- -- 56
2019-04-17 11:00:00 14.3 13 Sudoeste 27 Sudoeste 0 -- -- 59
2019-04-17 10:00:00 12.5 11 Sudoeste 28 Sudoeste 0 -- -- 63
2019-04-17 09:00:00 12.5 10 Sur 22 Sudoeste 0 -- -- 66
2019-04-17 08:00:00 11 7 Sur 19 Sudoeste 0 -- -- 69
2019-04-17 07:00:00 10.3 4 Sudoeste 11 Sudoeste 0 -- -- 68
2019-04-17 06:00:00 10.2 0 Calma 5 Noroeste 0 -- -- 69
2019-04-17 05:00:00 10.3 2 Noroeste 19 Oeste 0 -- -- 67
2019-04-17 04:00:00 10.5 6 Sudoeste 21 Sur 0 -- -- 65
2019-04-17 03:00:00 11.5 5 Sur 27 Sudoeste 0 -- -- 61
2019-04-17 02:00:00 11.5 7 Sudoeste 37 Sudoeste 0 -- -- 62
2019-04-17 01:00:00 12 12 Sudoeste 48 Sudoeste 0 -- -- 64
2019-04-17 00:00:00 13 28 Sur 47 Sudoeste 0 -- -- 65
2019-04-16 23:00:00 14 23 Sur 40 Sudoeste 0 -- -- 57
2019-04-16 22:00:00 14.7 17 Sur 32 Sudoeste 0 -- -- 49
2019-04-16 21:00:00 14.7 14 Sur 23 Sudoeste 0 -- -- 50
2019-04-16 20:00:00 15.9 10 Sur -- -- -- -- -- 47
2019-04-16 19:00:00 16.7 8 Sudoeste 22 Sudoeste 0 -- -- 40
2019-04-16 18:00:00 17.3 10 Sudoeste 22 Sudoeste 0 -- -- 42
2019-04-16 17:00:00 18 12 Sudoeste 22 Sudoeste 0 -- -- 44
2019-04-16 16:00:00 17.7 5 Oeste 17 Sudoeste 0 -- -- 49
2019-04-16 15:00:00 16.6 5 Norte 18 Noroeste 0 -- -- 52
2019-04-16 14:00:00 16.2 6 Noroeste 17 Norte 0 -- -- 51
2019-04-16 13:00:00 14.7 9 Noroeste 15 Norte 0 -- -- 51
2019-04-16 12:00:00 14.1 4 Noroeste 11 Noroeste 0 -- -- 62
2019-04-16 11:00:00 11.9 3 Noroeste 17 Noroeste 0 -- -- 77
2019-04-16 10:00:00 11.3 6 Noroeste 15 Noroeste 0 -- -- 82
2019-04-16 09:00:00 9.5 7 Noroeste 19 Noroeste 0 -- -- 90
2019-04-16 08:00:00 8.2 9 Noroeste 20 Noroeste 0 -- -- 95
2019-04-16 07:00:00 8 3 Noroeste 23 Noroeste 0 -- -- 95
2019-04-16 06:00:00 8.6 8 Noroeste 18 Noroeste 0 -- -- 97
2019-04-16 05:00:00 9 7 Noroeste 13 Noroeste 0 -- -- 99
2019-04-16 04:00:00 8.6 2 Noroeste 9 Noroeste 0 -- -- 99
2019-04-16 03:00:00 9 0 Calma 5 Noroeste 0.1 -- -- 98
2019-04-16 02:00:00 9.2 3 Oeste 12 Noroeste 1.5 -- -- 98
2019-04-16 01:00:00 9.2 8 Noroeste 20 Noroeste 2.4 -- -- 98
2019-04-16 00:00:00 9.5 10 Noroeste 32 Noroeste 2.6 -- -- 98
2019-04-15 23:00:00 10.4 17 Noroeste 32 Noroeste 0.4 -- -- 99
2019-04-15 22:00:00 12 4 Noroeste 23 Norte 7.4 -- -- 98
2019-04-15 21:00:00 13 12 Norte 35 Sur 0.1 -- -- 88
2019-04-15 20:00:00 14.1 15 Sur 53 Sur 1.1 -- -- 79
2019-04-15 19:00:00 16.9 24 Sur 51 Sur 0 -- -- 54
2019-04-15 18:00:00 18.2 27 Sur 51 Sur 0 -- -- 49
2019-04-15 17:00:00 19.1 15 Sudoeste 38 Sur 0 -- -- 48
2019-04-15 16:00:00 18.9 20 Sur 40 Sur 0 -- -- 48
2019-04-15 15:00:00 19.5 22 Sur 41 Sur 0 -- -- 48
2019-04-15 14:00:00 18.7 22 Sudoeste 44 Sur 0 -- -- 51
2019-04-15 13:00:00 18.3 18 Sur 36 Sudoeste 0 -- -- 54
2019-04-15 12:00:00 17.2 13 Sudoeste 26 Sur 0 -- -- 60
2019-04-15 11:00:00 15.2 3 Oeste 10 Sudoeste 0 -- -- 77
2019-04-15 10:00:00 13.4 3 Noroeste 11 Noroeste 0 -- -- 90
2019-04-15 09:00:00 10.6 0 Calma 8 Sudoeste 0 -- -- 99
2019-04-15 08:00:00 8 4 Sudoeste 9 Sudoeste 0 -- -- 99
2019-04-15 07:00:00 8 2 Sur 7 Noroeste 0 -- -- 98
2019-04-15 06:00:00 8.7 0 Calma 13 Sudoeste 0 -- -- 98
2019-04-15 05:00:00 8.6 0 Calma 8 Sudoeste 0 -- -- 98
2019-04-15 04:00:00 8.6 0 Calma 6 Sudoeste 0 -- -- 98
2019-04-15 03:00:00 9.2 3 Sur 9 Sudoeste 0 -- -- 98
2019-04-15 02:00:00 9.4 2 Sudoeste 10 Sudoeste 0 -- -- 96
2019-04-15 01:00:00 9.9 4 Sudoeste 10 Sur 0 -- -- 94
2019-04-15 00:00:00 11.1 6 Sudoeste 10 Sudoeste 0 -- -- 91
2019-04-14 23:00:00 12.1 0 Calma 11 Noroeste 0 -- -- 87
2019-04-14 22:00:00 13.2 3 Noroeste 14 Noroeste 0 -- -- 83
2019-04-14 21:00:00 14.4 9 Noroeste 29 Noroeste 0 -- -- 77
2019-04-14 20:00:00 15.4 14 Noroeste 30 Norte 0 -- -- 72
2019-04-14 19:00:00 16.2 18 Norte 39 Noroeste 0 -- -- 66
2019-04-14 18:00:00 18.2 18 Noroeste 35 Noroeste 0 -- -- 59
2019-04-14 17:00:00 18.8 14 Norte 34 Norte 0 -- -- 55
2019-04-14 16:00:00 19.3 14 Noroeste 29 Noroeste 0 -- -- 53
2019-04-14 15:00:00 18.5 13 Noroeste 28 Noroeste 0 -- -- 52
2019-04-14 14:00:00 18.8 12 Noroeste 30 Norte 0 -- -- 51
2019-04-14 13:00:00 17.5 12 Noroeste 26 Norte 0 -- -- 51
2019-04-14 12:00:00 15.3 8 Noroeste 22 Noroeste 0 -- -- 50
2019-04-14 11:00:00 14.2 8 Noroeste 22 Noroeste 0 -- -- 52
2019-04-14 10:00:00 12.7 2 Noroeste 9 Norte 0 -- -- 58
2019-04-14 09:00:00 9.1 0 Calma 4 Sudoeste 0 -- -- 67
2019-04-14 08:00:00 7.2 0 Calma 6 Sudoeste 0 -- -- 69
2019-04-14 07:00:00 6.6 4 Sur 6 Sudoeste 0 -- -- 68
2019-04-14 06:00:00 6.1 0 Calma 6 Sudoeste 0 -- -- 68
2019-04-14 05:00:00 6.4 0 Calma 6 Sudoeste 0 -- -- 64
2019-04-14 04:00:00 7.1 4 Sur 6 Sudoeste 0 -- -- 58
2019-04-14 03:00:00 8.2 2 Sur 6 Sur 0 -- -- 51
2019-04-14 02:00:00 10.4 0 Calma 6 Noroeste 0 -- -- 47
2019-04-14 01:00:00 9.1 0 Calma 6 Oeste 0 -- -- 47
2019-04-14 00:00:00 8.1 0 Calma 6 Sur 0 -- -- 47
2019-04-13 23:00:00 8.5 3 Sudoeste 9 Oeste 0 -- -- 43
2019-04-13 22:00:00 10.2 2 Sur 13 Oeste 0 -- -- 33
2019-04-13 21:00:00 14.2 6 Noroeste 18 Noroeste 0 -- -- 24
2019-04-13 20:00:00 17 7 Noroeste 17 Noroeste 0 -- -- 20
2019-04-13 19:00:00 18.8 9 Noroeste 21 Norte 0 -- -- 17
2019-04-13 18:00:00 19.7 9 Noroeste 21 Noroeste 0 -- -- 17
2019-04-13 17:00:00 19.7 11 Noroeste 21 Noroeste 0 -- -- 18
2019-04-13 16:00:00 19.7 6 Oeste 22 Oeste 0 -- -- 20
2019-04-13 15:00:00 19 9 Noroeste 21 Noroeste 0 -- -- 23
2019-04-13 14:00:00 17.3 6 Noroeste 15 Noroeste 0 -- -- 25
2019-04-13 13:00:00 14.8 7 Noroeste 17 Noroeste 0 -- -- 29
2019-04-13 12:00:00 13.6 2 Oeste 10 Noroeste 0 -- -- 40
2019-04-13 11:00:00 11 3 Noroeste 10 Noroeste 0 -- -- 54
2019-04-13 10:00:00 8 4 Noroeste 8 Noroeste 0 -- -- 66
2019-04-13 09:00:00 5 0 Calma 4 Sudoeste 0 -- -- 84
2019-04-13 08:00:00 1.7 3 Sur 8 Sur 0 -- -- 90
2019-04-13 07:00:00 1.9 0 Calma 6 Sur 0 -- -- 92
2019-04-13 06:00:00 0.5 2 Sur 7 Sur 0 -- -- 92
2019-04-13 05:00:00 1.2 4 Sudoeste 10 Sudoeste 0 -- -- 89
2019-04-13 04:00:00 2 2 Sur 7 Sudoeste 0 -- -- 86
2019-04-13 03:00:00 2.7 3 Sur 9 Sur 0 -- -- 83
2019-04-13 02:00:00 4.4 0 Calma 15 Noroeste 0 -- -- 75
2019-04-13 01:00:00 5.6 3 Oeste 12 Oeste 0 -- -- 72
2019-04-13 00:00:00 6.4 4 Noroeste 14 Noroeste 0 -- -- 70
2019-04-12 23:00:00 7.4 10 Noroeste 26 Noroeste 0 -- -- 66
2019-04-12 22:00:00 8.4 13 Noroeste 29 Noroeste 0 -- -- 62
2019-04-12 21:00:00 9.5 13 Noroeste 33 Noroeste 0 -- -- 56
2019-04-12 20:00:00 11.4 18 Noroeste 33 Noroeste 0 -- -- 50
2019-04-12 19:00:00 13.4 16 Noroeste 36 Noroeste 0 -- -- 45
2019-04-12 18:00:00 14.4 17 Noroeste 37 Noroeste 0 -- -- 44
2019-04-12 17:00:00 14.5 19 Noroeste 39 Noroeste 0 -- -- 43
2019-04-12 16:00:00 14.2 19 Noroeste 42 Noroeste 0 -- -- 44
2019-04-12 15:00:00 14.7 19 Noroeste 40 Norte 0 -- -- 47
2019-04-12 14:00:00 13.6 19 Noroeste 43 Noroeste 0 -- -- 48
2019-04-12 13:00:00 12.4 21 Noroeste 46 Noroeste 0 -- -- 52
2019-04-12 12:00:00 11.8 20 Noroeste 48 Noroeste 0 -- -- 53
2019-04-12 11:00:00 10.5 23 Norte 43 Norte 0 -- -- 56
2019-04-12 10:00:00 9.6 16 Noroeste 32 Norte 0 -- -- 63
2019-04-12 09:00:00 7.6 15 Noroeste 27 Noroeste 0 -- -- 74
2019-04-12 08:00:00 6.7 17 Noroeste 34 Noroeste 0 -- -- 79
2019-04-12 07:00:00 6.5 18 Noroeste 38 Norte 0 -- -- 80
2019-04-12 06:00:00 6.7 15 Noroeste 32 Noroeste 0 -- -- 85
2019-04-12 05:00:00 6.9 16 Noroeste 25 Noroeste 0 -- -- 85
2019-04-12 04:00:00 7 18 Noroeste 36 Noroeste 0 -- -- 84
2019-04-12 03:00:00 7 14 Noroeste 33 Noroeste 0 -- -- 84
2019-04-12 02:00:00 7 14 Noroeste 50 Norte 0 -- -- 84
2019-04-12 01:00:00 6.9 11 Noroeste 37 Norte 0 -- -- 88
2019-04-12 00:00:00 6.9 20 Noroeste 37 Norte 0 -- -- 84
2019-04-11 23:00:00 7 18 Noroeste 36 Noroeste 0 -- -- 79
2019-04-11 22:00:00 7.4 18 Noroeste 32 Noroeste 0 -- -- 77
2019-04-11 21:00:00 7.8 16 Noroeste 38 Noroeste 0 -- -- 80
2019-04-11 20:00:00 8.9 15 Noroeste 35 Noroeste 0 -- -- 72
2019-04-11 19:00:00 9.5 15 Noroeste 38 Norte 0 -- -- 67
2019-04-11 18:00:00 10.3 19 Noroeste 41 Norte 0 -- -- 66
2019-04-11 17:00:00 9.9 22 Noroeste 40 Noroeste 0 -- -- 70
2019-04-11 16:00:00 9.7 21 Noroeste 35 Norte 0 -- -- 71
2019-04-11 15:00:00 10.1 20 Noroeste 39 Norte 0 -- -- 72
2019-04-11 14:00:00 9.2 20 Noroeste 40 Noroeste 0 -- -- 76
2019-04-11 13:00:00 8.7 18 Noroeste 40 Norte 0 -- -- 76
2019-04-11 12:00:00 8.8 18 Noroeste 41 Noroeste 0 -- -- 77
2019-04-11 11:00:00 8.4 18 Noroeste 38 Norte 0 -- -- 79
2019-04-11 10:00:00 7 18 Noroeste 35 Noroeste 0 -- -- 86
2019-04-11 09:00:00 6.7 15 Noroeste 31 Noroeste 0 -- -- 85
2019-04-11 08:00:00 6 17 Noroeste 34 Noroeste 0 -- -- 89
2019-04-11 07:00:00 5.5 14 Noroeste 29 Noroeste 0 -- -- 91
2019-04-11 06:00:00 6.1 18 Noroeste 33 Norte 0 -- -- 87
2019-04-11 05:00:00 6.2 22 Noroeste 35 Noroeste 0 -- -- 87
2019-04-11 04:00:00 6.4 17 Noroeste 33 Noroeste 0 -- -- 87
2019-04-11 03:00:00 6.7 22 Noroeste 39 Norte 0 -- -- 85
2019-04-11 02:00:00 6.8 13 Noroeste 34 Norte 0 -- -- 84
2019-04-11 01:00:00 7.2 15 Noroeste 35 Noroeste 0 -- -- 82
2019-04-11 00:00:00 6.8 13 Norte 38 Noroeste 0 -- -- 80
2019-04-10 23:00:00 7.2 18 Noroeste 39 Noroeste 0 -- -- 75
2019-04-10 22:00:00 8.1 19 Noroeste 33 Noroeste 0 -- -- 72
2019-04-10 21:00:00 8.7 18 Noroeste 28 Noroeste 0 -- -- 68
2019-04-10 20:00:00 10 19 Noroeste 38 Noroeste 0 -- -- 59
2019-04-10 19:00:00 10.7 12 Norte 37 Norte 0 -- -- 57
2019-04-10 18:00:00 11.6 21 Norte 44 Noroeste 0 -- -- 54
2019-04-10 17:00:00 12.6 20 Noroeste 45 Noroeste 0 -- -- 53
2019-04-10 16:00:00 13.2 23 Noroeste 41 Noroeste 0 -- -- 51
2019-04-10 15:00:00 12.9 19 Noroeste 37 Norte 0 -- -- 58
2019-04-10 14:00:00 12 19 Noroeste 35 Noroeste 0 -- -- 62
2019-04-10 13:00:00 11 19 Noroeste 44 Norte 0 -- -- 68
2019-04-10 12:00:00 10.3 17 Noroeste 34 Noroeste 0 -- -- 76
2019-04-10 11:00:00 8.1 18 Noroeste 31 Noroeste 0 -- -- 85
2019-04-10 10:00:00 7.5 14 Noroeste 29 Noroeste 0 -- -- 87
2019-04-10 09:00:00 7.5 14 Noroeste 27 Noroeste 0 -- -- 88
2019-04-10 08:00:00 6.4 12 Noroeste 21 Norte 0 -- -- 94
2019-04-10 07:00:00 5.7 0 Calma 14 Norte 0 -- -- 94
2019-04-10 06:00:00 5.6 4 Noroeste 13 Noroeste 0 -- -- 94
2019-04-10 05:00:00 5.6 2 Noroeste 10 Norte 0 -- -- 93
2019-04-10 04:00:00 5.9 4 Noroeste 14 Noroeste 0 -- -- 95
2019-04-10 03:00:00 5.7 3 Noroeste 12 Noroeste 0 -- -- 99
2019-04-10 02:00:00 5.7 0 Calma 5 Noroeste 0.2 -- -- 99
2019-04-10 01:00:00 5.9 0 Calma 10 Noroeste 0.9 -- -- 99
2019-04-10 00:00:00 5.8 3 Noroeste 17 Norte 1.9 -- -- 99
2019-04-09 23:00:00 6 12 Noroeste 25 Norte 2 -- -- 99
2019-04-09 22:00:00 6.8 6 Noroeste 12 Noroeste 0.8 -- -- 97
2019-04-09 21:00:00 7.3 7 Noroeste 23 Noroeste 1.7 -- -- 93
2019-04-09 20:00:00 8.4 8 Sudoeste 16 Oeste 1.3 -- -- 85
2019-04-09 19:00:00 10.3 4 Sudoeste 21 Sudoeste 0.7 -- -- 80
2019-04-09 18:00:00 9.2 15 Sudoeste 24 Oeste 0.6 -- -- 68
2019-04-09 17:00:00 12.7 5 Noroeste 17 Norte 0 -- -- 51
2019-04-09 16:00:00 12.8 2 Noroeste 18 Norte 0 -- -- 51
2019-04-09 15:00:00 13 4 Noroeste 19 Noroeste 0 -- -- 49
2019-04-09 14:00:00 13.4 9 Noroeste 22 Noroeste 0 -- -- 51
2019-04-09 13:00:00 11.1 10 Noroeste 21 Noroeste 0 -- -- 58
2019-04-09 12:00:00 10.8 9 Noroeste 22 Norte 0 -- -- 63
2019-04-09 11:00:00 11 7 Noroeste 14 Norte 0 -- -- 74
2019-04-09 10:00:00 9.8 5 Noroeste 8 Norte 0 -- -- 81
2019-04-09 09:00:00 6.8 0 Calma 10 Sudoeste 0 -- -- 99
2019-04-09 08:00:00 3.9 4 Sudoeste 10 Sudoeste 0 -- -- 99
2019-04-09 07:00:00 3.2 5 Sudoeste 9 Sudoeste 0 -- -- 99
2019-04-09 06:00:00 3.5 6 Sudoeste 11 Sudoeste 0 -- -- 99
2019-04-09 05:00:00 4.5 2 Noroeste 7 Sudoeste 0 -- -- 99
2019-04-09 04:00:00 4.1 4 Sur 10 Sudoeste 0 -- -- 98
2019-04-09 03:00:00 4 3 Sur 6 Sudoeste 0 -- -- 97
2019-04-09 02:00:00 5.2 2 Sudoeste 8 Sur 0 -- -- 96
2019-04-09 01:00:00 5.8 4 Sudoeste 8 Sudoeste 0 -- -- 95
2019-04-09 00:00:00 6.1 6 Sudoeste 9 Sudoeste 0 -- -- 93
2019-04-08 23:00:00 6.8 0 Calma 12 Sudoeste 0 -- -- 90
2019-04-08 22:00:00 7.4 3 Noroeste 7 Norte 0 -- -- 87
2019-04-08 21:00:00 9 0 Calma 17 Noroeste 0 -- -- 78
2019-04-08 20:00:00 10.8 6 Noroeste 17 Noroeste 0 -- -- 73
2019-04-08 19:00:00 12 11 Noroeste 24 Norte 0 -- -- 70
2019-04-08 18:00:00 12.7 11 Noroeste 24 Noroeste 0 -- -- 68
2019-04-08 17:00:00 12.7 11 Noroeste 20 Noroeste 0 -- -- 70
2019-04-08 16:00:00 12.7 8 Noroeste 14 Noroeste 0 -- -- 74
2019-04-08 15:00:00 11.4 6 Norte 16 Noroeste 0 -- -- 83
2019-04-08 14:00:00 10.7 6 Noroeste 14 Noroeste 0 -- -- 88
2019-04-08 13:00:00 10.2 2 Noroeste 9 Noroeste 0 -- -- 96
2019-04-08 12:00:00 8.7 3 Noroeste 7 Norte 0.1 -- -- 99
2019-04-08 11:00:00 7.6 0 Calma 5 Norte 0 -- -- 99
2019-04-08 10:00:00 6.6 2 Noroeste 5 Oeste 0.9 -- -- 98
2019-04-08 09:00:00 6.4 0 Calma 8 Noroeste 0.3 -- -- 96
2019-04-08 08:00:00 6.1 2 Sur 31 Sur 0.2 -- -- 95
2019-04-08 07:00:00 6.2 3 Sur 12 Sur 0 -- -- 94
2019-04-08 06:00:00 6.3 4 Sudoeste 9 Sudoeste 0.3 -- -- 91
2019-04-08 05:00:00 6.8 3 Sudoeste 8 Sudoeste 0 -- -- 86
2019-04-08 04:00:00 7.6 2 Sudoeste 13 Sudoeste 0 -- -- 76
2019-04-08 03:00:00 7.9 5 Sudoeste 18 Sur 0 -- -- 69
2019-04-08 02:00:00 8.3 8 Sur 18 Sur 0 -- -- 67
2019-04-08 01:00:00 7.3 8 Sur 12 Sur 0 -- -- 74
2019-04-08 00:00:00 6.4 6 Sudoeste 13 Sudoeste 0 -- -- 76
2019-04-07 23:00:00 6.4 9 Sudoeste 13 Sudoeste 0 -- -- 81
2019-04-07 22:00:00 6.1 9 Sudoeste 13 Sudoeste 0 -- -- 81
2019-04-07 21:00:00 6.9 8 Sudoeste 11 Sudoeste 0 -- -- 76
2019-04-07 20:00:00 10 0 Calma 6 Noroeste 0 -- -- 61
2019-04-07 19:00:00 10.8 4 Noroeste 15 Noroeste 0 -- -- 60
2019-04-07 18:00:00 11.3 7 Noroeste 16 Norte 0 -- -- 62
2019-04-07 17:00:00 10.2 6 Noroeste 16 Norte 0 -- -- 64
2019-04-07 16:00:00 10.1 8 Noroeste 17 Noroeste 0 -- -- 66
2019-04-07 15:00:00 9.7 6 Noroeste 19 Norte 0 -- -- 72
2019-04-07 14:00:00 8.9 8 Noroeste 18 Noroeste 0 -- -- 75
2019-04-07 13:00:00 8 9 Noroeste 21 Norte 0 -- -- 79
2019-04-07 12:00:00 6.9 7 Norte 16 Norte 0 -- -- 88
2019-04-07 11:00:00 6 7 Noroeste 20 Noroeste 0.2 -- -- 92
2019-04-07 10:00:00 5.8 8 Noroeste 19 Noroeste 0 -- -- 98
2019-04-07 09:00:00 4.8 0 Calma 7 Noroeste 0 -- -- 99
2019-04-07 08:00:00 4.4 0 Calma 7 Sur 0 -- -- 99
2019-04-07 07:00:00 4.2 0 Calma 4 Noroeste 0 -- -- 98
2019-04-07 06:00:00 4.3 0 Calma 8 Sudoeste 0 -- -- 97
2019-04-07 05:00:00 4.3 5 Sur 10 Sur 3 -- -- 95
2019-04-07 04:00:00 5 6 Sudoeste 26 Sudoeste 0.4 -- -- 88
2019-04-07 03:00:00 5.5 9 Sudoeste 21 Sudoeste 0 -- -- 84
2019-04-07 02:00:00 6.1 8 Sudoeste 24 Oeste 0 -- -- 83
2019-04-07 01:00:00 5.3 6 Sur 16 Sudoeste 0 -- -- 87
2019-04-07 00:00:00 6.1 6 Sur 13 Sudoeste 0 -- -- 82
2019-04-06 23:00:00 6.8 3 Sudoeste 19 Sudoeste 0 -- -- 76
2019-04-06 22:00:00 7 13 Sur 29 Sur 0 -- -- 72
2019-04-06 21:00:00 7.6 14 Sur 30 Sur 0 -- -- 65
2019-04-06 20:00:00 8.4 14 Sur 30 Sudoeste 0 -- -- 58
2019-04-06 19:00:00 10 14 Sudoeste 36 Sur 0 -- -- 53
2019-04-06 18:00:00 9.7 13 Sudoeste 31 Sudoeste 0 -- -- 54
2019-04-06 17:00:00 9.9 10 Sur 27 Sudoeste 0.1 -- -- 56
2019-04-06 16:00:00 9.6 10 Sur 36 Sudoeste 0 -- -- 57
2019-04-06 15:00:00 9.3 17 Sur 35 Sudoeste 0 -- -- 58
2019-04-06 14:00:00 10.2 12 Sudoeste 31 Sudoeste 0 -- -- 54
2019-04-06 13:00:00 10.2 9 Sudoeste 21 Sudoeste 0 -- -- 54
2019-04-06 12:00:00 8.9 6 Sudoeste 21 Norte 0 -- -- 69
2019-04-06 11:00:00 6.5 6 Noroeste 19 Norte 0 -- -- 81
2019-04-06 10:00:00 4.9 4 Oeste 10 Oeste 0 -- -- 98
2019-04-06 09:00:00 3.7 0 Calma 7 Sudoeste 0 -- -- 98
2019-04-06 08:00:00 3.4 0 Calma 6 Sudoeste 0 -- -- 98
2019-04-06 07:00:00 3.9 2 Noroeste 18 Noroeste 0 -- -- 98
2019-04-06 06:00:00 3.8 0 Calma 8 Oeste 0 -- -- 99
2019-04-06 05:00:00 3.8 0 Calma 9 Oeste 0 -- -- 99
2019-04-06 04:00:00 3.6 3 Sudoeste 8 Sudoeste 0 -- -- 99
2019-04-06 03:00:00 3.5 3 Sudoeste 6 Sudoeste 0 -- -- 99
2019-04-06 02:00:00 3.4 4 Sudoeste 7 Sudoeste 0.2 -- -- 99
2019-04-06 01:00:00 3.2 4 Noroeste 8 Sudoeste 0.9 -- -- 98
2019-04-06 00:00:00 3.3 3 Sur 16 Oeste 4.5 -- -- 95
2019-04-05 23:00:00 4.4 8 Sudoeste 21 Noroeste 0.1 -- -- 91
2019-04-05 22:00:00 5.9 3 Oeste 17 Oeste 0 -- -- 90
2019-04-05 21:00:00 5.6 0 Calma 12 Noroeste 0 -- -- 90
2019-04-05 20:00:00 6.1 7 Oeste 26 Oeste 0 -- -- 88
2019-04-05 19:00:00 6.5 13 Sudoeste 30 Sur 0.3 -- -- 87
2019-04-05 18:00:00 8 13 Sur 22 Sur 0 -- -- 75
2019-04-05 17:00:00 9.5 10 Sudoeste 26 Sudoeste 0 -- -- 69
2019-04-05 16:00:00 9.7 9 Sudoeste 34 Sur 0 -- -- 70
2019-04-05 15:00:00 9.6 18 Sudoeste 29 Sur 0 -- -- 73
2019-04-05 14:00:00 8.2 17 Sur 34 Sudoeste 0 -- -- 81
2019-04-05 13:00:00 8.3 18 Sudoeste 44 Sur 0 -- -- 77
2019-04-05 12:00:00 8.6 23 Sur 43 Sudoeste 0 -- -- 79
2019-04-05 11:00:00 8.3 18 Sur 39 Sudoeste 0.1 -- -- 87
2019-04-05 10:00:00 5.5 14 Sur 30 Sudoeste 0.3 -- -- 93
2019-04-05 09:00:00 4.8 16 Sur 31 Sur 0.4 -- -- 93
2019-04-05 08:00:00 4.6 15 Sudoeste 32 Sur 0.4 -- -- 89
2019-04-05 07:00:00 6.2 17 Sudoeste 40 Sudoeste 0 -- -- 69
2019-04-05 06:00:00 7.5 15 Sudoeste 33 Sudoeste 0 -- -- 53
2019-04-05 05:00:00 8.2 15 Sudoeste 28 Sur 0 -- -- 43
2019-04-05 04:00:00 8.1 12 Sudoeste 39 Sudoeste 0 -- -- 42
2019-04-05 03:00:00 8 20 Sur 36 Sudoeste 0 -- -- 41
2019-04-05 02:00:00 8 16 Sur 33 Sur 0 -- -- 40
2019-04-05 01:00:00 8.3 13 Sur 32 Sur 0 -- -- 40
2019-04-05 00:00:00 8.7 12 Sur 27 Sur 0 -- -- 40
2019-04-04 23:00:00 9 14 Sur 25 Sur 0 -- -- 40
2019-04-04 22:00:00 8.9 11 Sur 26 Sur 0 -- -- 41
2019-04-04 21:00:00 8.6 8 Sur 20 Sudoeste 0 -- -- 43
2019-04-04 20:00:00 9.4 9 Sudoeste 21 Sur 0 -- -- 41
2019-04-04 19:00:00 10.4 12 Sudoeste 27 Sudoeste 0 -- -- 39
2019-04-04 18:00:00 10.8 11 Sudoeste 22 Sudoeste 0 -- -- 38
2019-04-04 17:00:00 10.4 12 Sudoeste 23 Oeste 0 -- -- 40
2019-04-04 16:00:00 9.7 5 Noroeste 13 Noroeste 0 -- -- 46
2019-04-04 15:00:00 8.6 4 Noroeste 15 Noroeste 0 -- -- 48
2019-04-04 14:00:00 7.6 6 Noroeste 22 Noroeste 0 -- -- 51
2019-04-04 13:00:00 7.5 7 Oeste 19 Norte 0 -- -- 55
2019-04-04 12:00:00 6.3 8 Noroeste 19 Norte 0 -- -- 59
2019-04-04 11:00:00 4.9 8 Noroeste 16 Noroeste 0 -- -- 67
2019-04-04 10:00:00 4 4 Noroeste 10 Noroeste 0 -- -- 85
2019-04-04 09:00:00 1.8 2 Sur 12 Sudoeste 0 -- -- 98
2019-04-04 08:00:00 -1.2 7 Sudoeste 11 Sudoeste 0 -- -- 98
2019-04-04 07:00:00 -1.2 6 Sudoeste 10 Sudoeste 0 -- -- 97
2019-04-04 06:00:00 -0.9 4 Sur 9 Sur 0 -- -- 97
2019-04-04 05:00:00 -1.3 5 Sudoeste 9 Sudoeste 0 -- -- 96
2019-04-04 04:00:00 -1.6 0 Calma 13 Sudoeste 0 -- -- 94
2019-04-04 03:00:00 -1.3 7 Sudoeste 11 Sudoeste 0 -- -- 90
2019-04-04 02:00:00 -0.1 3 Oeste 10 Norte 0 -- -- 85
2019-04-04 01:00:00 0 0 Calma 12 Noroeste 0 -- -- 77
2019-04-04 00:00:00 2.2 8 Noroeste 21 Noroeste 0 -- -- 69
2019-04-03 23:00:00 3.2 15 Noroeste 38 Noroeste 0 -- -- 64
2019-04-03 22:00:00 3.5 12 Noroeste 22 Noroeste 0 -- -- 69
2019-04-03 21:00:00 4 9 Noroeste 28 Noroeste 0 -- -- 65
2019-04-03 20:00:00 5.5 12 Noroeste 23 Noroeste 0 -- -- 62
2019-04-03 19:00:00 5.6 15 Noroeste 35 Noroeste 0 -- -- 64
2019-04-03 18:00:00 6.4 13 Noroeste 41 Noroeste 0 -- -- 65
2019-04-03 17:00:00 6.4 24 Noroeste 42 Noroeste 0 -- -- 61
2019-04-03 16:00:00 8.4 16 Noroeste 36 Noroeste 0 -- -- 53
2019-04-03 15:00:00 8.2 14 Noroeste 28 Noroeste 0 -- -- 65
2019-04-03 14:00:00 6.9 13 Noroeste 22 Noroeste 0 -- -- 74
2019-04-03 13:00:00 6.3 6 Noroeste 21 Noroeste 0 -- -- 83
2019-04-03 12:00:00 5.8 6 Noroeste 21 Norte 0.2 -- -- 94
2019-04-03 11:00:00 5.5 8 Noroeste 16 Norte 0 -- -- 92
2019-04-03 10:00:00 5.5 8 Noroeste 18 Norte 0 -- -- 90
2019-04-03 09:00:00 5.6 12 Noroeste 22 Noroeste 0 -- -- 89
2019-04-03 08:00:00 5.6 9 Noroeste 19 Noroeste 0 -- -- 90
2019-04-03 07:00:00 5.7 6 Noroeste 29 Noroeste 0 -- -- 94
2019-04-03 06:00:00 5.9 8 Noroeste 17 Noroeste 0.2 -- -- 96
2019-04-03 05:00:00 6.2 8 Noroeste 26 Norte 1 -- -- 95
2019-04-03 04:00:00 7 11 Noroeste 25 Norte 0.1 -- -- 91
2019-04-03 03:00:00 7.7 9 Noroeste 23 Noroeste 0 -- -- 87
2019-04-03 02:00:00 8.1 10 Noroeste 20 Noroeste 0 -- -- 80
2019-04-03 01:00:00 8.3 9 Noroeste 23 Noroeste 0 -- -- 76
2019-04-03 00:00:00 8.4 7 Noroeste 18 Noroeste 0 -- -- 73
2019-04-02 23:00:00 8.9 11 Noroeste 22 Noroeste 0 -- -- 69
2019-04-02 22:00:00 9 10 Noroeste 19 Noroeste 0 -- -- 67
2019-04-02 21:00:00 9.9 10 Noroeste 26 Norte 0 -- -- 62
2019-04-02 20:00:00 12.1 15 Noroeste 27 Norte 0 -- -- 53
2019-04-02 19:00:00 14 9 Noroeste 24 Norte 0 -- -- 46
2019-04-02 18:00:00 15.2 10 Norte 24 Norte 0 -- -- 41
2019-04-02 17:00:00 15.7 12 Noroeste 26 Norte 0 -- -- 41
2019-04-02 16:00:00 15.9 11 Norte 24 Noroeste 0 -- -- 42
2019-04-02 15:00:00 15.3 10 Noroeste 28 Noroeste 0 -- -- 48
2019-04-02 14:00:00 14.5 9 Noroeste 21 Noroeste 0 -- -- 61
2019-04-02 13:00:00 12.8 8 Noroeste 19 Norte 0 -- -- 70
2019-04-02 12:00:00 11.5 6 Noroeste 18 Norte 0 -- -- 89
2019-04-02 11:00:00 9.4 0 Calma 9 Noroeste 0 -- -- 99
2019-04-02 10:00:00 8.8 0 Calma 6 Noroeste 0 -- -- 99
2019-04-02 09:00:00 7.8 0 Calma 4 Sudoeste 0 -- -- 99
2019-04-02 08:00:00 8 0 Calma 5 Sur 0 -- -- 99
2019-04-02 07:00:00 6.6 0 Calma 5 Sur 0 -- -- 99
2019-04-02 06:00:00 5.4 0 Calma 10 Sudoeste 0 -- -- 99
2019-04-02 05:00:00 5.9 5 Sudoeste 10 Sudoeste 0 -- -- 99
2019-04-02 04:00:00 6.9 4 Sur 8 Sudoeste 0 -- -- 98
2019-04-02 03:00:00 8.2 0 Calma 7 Sudoeste 0 -- -- 98
2019-04-02 02:00:00 8.5 6 Sudoeste 9 Sudoeste 0 -- -- 98
2019-04-02 01:00:00 8.8 6 Sudoeste 8 Sudoeste 0 -- -- 97
2019-04-02 00:00:00 9.4 4 Sur 6 Sur 0 -- -- 96
2019-04-01 23:00:00 10.1 0 Calma 11 Sur 0 -- -- 95
2019-04-01 22:00:00 10.9 5 Sudoeste 15 Oeste 0 -- -- 94
2019-04-01 21:00:00 11.1 0 Calma 9 Oeste 0.4 -- -- 91
2019-04-01 20:00:00 11.8 3 Oeste 5 Oeste 0 -- -- 86
2019-04-01 19:00:00 12.1 2 Oeste 5 Oeste 0 -- -- 86
2019-04-01 18:00:00 11.5 0 Calma 4 Noroeste 0 -- -- 87
2019-04-01 17:00:00 11.4 2 Noroeste 6 Noroeste 0 -- -- 89
2019-04-01 16:00:00 11 3 Noroeste 7 Oeste 0 -- -- 91
2019-04-01 15:00:00 10.4 5 Noroeste 11 Noroeste 0 -- -- 92
2019-04-01 14:00:00 11.3 6 Norte 10 Norte 0 -- -- 94
2019-04-01 13:00:00 9.7 5 Noroeste 10 Norte 0 -- -- 99
2019-04-01 12:00:00 9.2 4 Noroeste 7 Noroeste 0 -- -- 99
2019-04-01 11:00:00 8.2 5 Noroeste 9 Norte 0 -- -- 99
2019-04-01 10:00:00 8.1 3 Noroeste 6 Noroeste 0.1 -- -- 99
2019-04-01 09:00:00 7.1 0 Calma 4 Oeste 0.1 -- -- 99
2019-04-01 08:00:00 6.6 0 Calma 4 Sudoeste 0.2 -- -- 99
2019-04-01 07:00:00 6.6 0 Calma 2 Sudoeste 0.8 -- -- 99
2019-04-01 06:00:00 6.6 0 Calma 4 Sudoeste 1.1 -- -- 99
2019-04-01 05:00:00 6.8 0 Calma 4 Sur 0.8 -- -- 99
2019-04-01 04:00:00 7 0 Calma 11 Sur 0.6 -- -- 99
2019-04-01 03:00:00 7 6 Sur 15 Sur 0.2 -- -- 96
2019-04-01 02:00:00 7.9 0 Calma 7 Sur 0 -- -- 88
2019-04-01 01:00:00 8.4 0 Calma 8 Sur 0 -- -- 84
2019-04-01 00:00:00 8.4 7 Sur 16 Sur 0 -- -- 83
2019-03-31 23:00:00 8.9 9 Sur 14 Sudoeste 0 -- -- 79
2019-03-31 22:00:00 9.3 6 Sur 15 Sudoeste 0 -- -- 75
2019-03-31 21:00:00 10 4 Sur 11 Sur 0 -- -- 65
2019-03-31 20:00:00 10.9 6 Sur 25 Sur 0 -- -- 64
2019-03-31 19:00:00 11.7 12 Sur 24 Sudoeste 0 -- -- 62
2019-03-31 18:00:00 12.6 13 Sur 24 Sudoeste 0 -- -- 62
2019-03-31 17:00:00 13.9 10 Sudoeste 24 Sudoeste 0 -- -- 60
2019-03-31 16:00:00 13.6 11 Sudoeste 24 Sudoeste 0 -- -- 65
2019-03-31 15:00:00 13.7 8 Sudoeste 23 Sudoeste 0 -- -- 63
2019-03-31 14:00:00 14.4 4 Sudoeste 13 Sur 0 -- -- 64
2019-03-31 13:00:00 12.8 9 Noroeste 18 Noroeste 0 -- -- 68
2019-03-31 12:00:00 11.2 6 Noroeste 12 Noroeste 0 -- -- 69
2019-03-31 11:00:00 9.4 8 Noroeste 12 Noroeste 0 -- -- 77
2019-03-31 10:00:00 7.1 3 Norte 7 Norte 0 -- -- 92
2019-03-31 09:00:00 4.9 0 Calma 5 Noroeste 0 -- -- 99
2019-03-31 08:00:00 3.3 5 Sudoeste 12 Sudoeste 0 -- -- 99
2019-03-31 07:00:00 3.6 0 Calma 11 Sudoeste 0 -- -- 97
2019-03-31 06:00:00 4.1 5 Sur 9 Sudoeste 0 -- -- 94
2019-03-31 05:00:00 5.7 0 Calma 10 Sudoeste 0 -- -- 90
2019-03-31 03:00:00 6.2 6 Sudoeste 13 Sudoeste 0 -- -- 78
2019-03-31 01:00:00 9.1 4 Oeste 12 Oeste 0 -- -- 67
2019-03-31 00:00:00 10 6 Sudoeste 29 Sur 0 -- -- 55
2019-03-30 23:00:00 11.1 12 Sur 21 Sur 0 -- -- 53
2019-03-30 22:00:00 11.2 10 Sur 19 Sudoeste 0 -- -- 54
2019-03-30 21:00:00 10.8 9 Sur 16 Sur 0 -- -- 52
2019-03-30 20:00:00 11 9 Sur 14 Sur 0 -- -- 51
2019-03-30 19:00:00 13.8 9 Sur 18 Sur 0 -- -- 45
2019-03-30 18:00:00 15.4 11 Sur 23 Sur 0 -- -- 42
2019-03-30 17:00:00 16 12 Sudoeste 27 Sur 0 -- -- 40
2019-03-30 16:00:00 16.9 10 Sudoeste 26 Sudoeste 0 -- -- 40
2019-03-30 15:00:00 16.5 12 Sur 26 Sur 0 -- -- 43
2019-03-30 14:00:00 16.2 11 Sudoeste 26 Sudoeste 0 -- -- 44
2019-03-30 13:00:00 15.2 11 Sur 25 Sudoeste 0 -- -- 46
2019-03-30 12:00:00 14.3 12 Sudoeste 29 Sur 0 -- -- 50
2019-03-30 11:00:00 13.1 12 Sudoeste 33 Sur 0 -- -- 51
2019-03-30 10:00:00 11.6 15 Sur 26 Sur 0 -- -- 56
2019-03-30 09:00:00 9.9 5 Oeste 18 Oeste 0 -- -- 65
2019-03-30 08:00:00 5.8 3 Sudoeste 9 Sur 0 -- -- 80
2019-03-30 07:00:00 2.8 4 Sur 11 Sudoeste 0 -- -- 81
2019-03-30 06:00:00 3.7 5 Sur 11 Sudoeste 0 -- -- 76
2019-03-30 05:00:00 4.6 5 Sudoeste 12 Sudoeste 0 -- -- 69
2019-03-30 04:00:00 6.1 0 Calma 18 Sur 0 -- -- 61
2019-03-30 03:00:00 7.2 9 Sudoeste 18 Sur 0 -- -- 63
2019-03-30 02:00:00 6.8 2 Sudoeste 10 Oeste 0 -- -- 61
2019-03-30 01:00:00 9.3 5 Noroeste 39 Sur 0 -- -- 56
2019-03-30 00:00:00 10 20 Sur 44 Sur 0 -- -- 56
2019-03-29 23:00:00 10.6 22 Sur 48 Sur 0 -- -- 57
2019-03-29 22:00:00 11.4 26 Sur 42 Sur 0 -- -- 54
2019-03-29 21:00:00 12.2 21 Sur 35 Sur 0 -- -- 49
2019-03-29 20:00:00 12.6 15 Sur 27 Sur 0 -- -- 46
2019-03-29 19:00:00 13.7 13 Sudoeste 28 Sudoeste 0 -- -- 43
2019-03-29 18:00:00 15.2 14 Sudoeste 33 Sudoeste 0 -- -- 40
2019-03-29 17:00:00 16.1 15 Sur 32 Sur 0 -- -- 40
2019-03-29 16:00:00 16.9 17 Sur 37 Sur 0 -- -- 40
2019-03-29 15:00:00 16.4 17 Sur 38 Sur 0 -- -- 37
2019-03-29 14:00:00 16.3 20 Sudoeste 42 Sur 0 -- -- 40
2019-03-29 13:00:00 15.7 17 Sur 39 Sudoeste 0 -- -- 41
2019-03-29 12:00:00 14.9 18 Sur 41 Sudoeste 0 -- -- 43
2019-03-29 11:00:00 14 17 Sudoeste 36 Sudoeste 0 -- -- 47
2019-03-29 10:00:00 10.7 5 Noroeste 10 Norte 0 -- -- 72
2019-03-29 09:00:00 8.4 0 Calma 6 Noroeste 0 -- -- 80
2019-03-29 08:00:00 4.9 0 Calma 7 Noroeste 0 -- -- 90
2019-03-29 07:00:00 2 0 Calma 7 Sudoeste 0 -- -- 92
2019-03-29 06:00:00 2.3 0 Calma 5 Sur 0 -- -- 91
2019-03-29 05:00:00 2.9 0 Calma 5 Sur 0 -- -- 90
2019-03-29 04:00:00 4.1 0 Calma 9 Sur 0 -- -- 91
2019-03-29 03:00:00 4.8 0 Calma 5 Sur 0 -- -- 90
2019-03-29 02:00:00 4.6 0 Calma 8 Sur 0 -- -- 92
2019-03-29 01:00:00 4.5 3 Sur 8 Sur 0 -- -- 91
2019-03-29 00:00:00 4.8 3 Sur 10 Sudoeste 0 -- -- 88
2019-03-28 23:00:00 5.4 4 Sur 9 Sudoeste 0 -- -- 85
2019-03-28 22:00:00 6.2 3 Sur 7 Sudoeste 0 -- -- 80
2019-03-28 21:00:00 7.4 3 Sur 9 Sur 0 -- -- 72
2019-03-28 20:00:00 10.5 2 Sur 10 Noroeste 0 -- -- 58
2019-03-28 19:00:00 13.9 4 Noroeste 18 Noroeste 0 -- -- 51
2019-03-28 18:00:00 15.8 9 Norte 19 Norte 0 -- -- 45
2019-03-28 17:00:00 17.5 6 Noroeste 18 Noroeste 0 -- -- 43
2019-03-28 16:00:00 17.3 8 Noroeste 22 Noroeste 0 -- -- 43
2019-03-28 15:00:00 17.2 4 Noroeste 15 Noroeste 0 -- -- 44
2019-03-28 14:00:00 15.9 5 Noroeste 18 Noroeste 0 -- -- 46
2019-03-28 13:00:00 15.2 10 Noroeste 19 Noroeste 0 -- -- 46
2019-03-28 12:00:00 13.2 8 Noroeste 15 Norte 0 -- -- 53
2019-03-28 11:00:00 12.2 4 Oeste 11 Norte 0 -- -- 62
2019-03-28 10:00:00 9.5 5 Noroeste 10 Noroeste 0 -- -- 73
2019-03-28 09:00:00 7.9 4 Noroeste 6 Noroeste 0 -- -- 80
2019-03-28 08:00:00 4.3 0 Calma 2 Sudoeste 0 -- -- 91
2019-03-28 07:00:00 3.1 0 Calma 6 Noroeste 0 -- -- 89
2019-03-28 06:00:00 4.6 0 Calma 10 Oeste 0 -- -- 85
2019-03-28 05:00:00 5.2 3 Sudoeste 11 Oeste 0 -- -- 84
2019-03-28 04:00:00 5.3 3 Oeste 12 Oeste 0 -- -- 80
2019-03-28 03:00:00 5.8 5 Noroeste 15 Oeste 0 -- -- 76
2019-03-28 02:00:00 6.1 5 Oeste 15 Noroeste 0 -- -- 73
2019-03-28 01:00:00 6.4 4 Noroeste 22 Noroeste 0 -- -- 69
2019-03-28 00:00:00 7.2 6 Noroeste 26 Noroeste 0 -- -- 65
2019-03-27 23:00:00 8 14 Noroeste 26 Noroeste 0 -- -- 63
2019-03-27 22:00:00 8.7 12 Noroeste 26 Noroeste 0 -- -- 58
2019-03-27 21:00:00 9.5 18 Noroeste 29 Norte 0 -- -- 54
2019-03-27 20:00:00 10 16 Noroeste 28 Norte 0 -- -- 51
2019-03-27 19:00:00 11.9 15 Noroeste 32 Norte 0 -- -- 40
2019-03-27 18:00:00 14.5 17 Noroeste 32 Noroeste 0 -- -- 32
2019-03-27 17:00:00 16.3 15 Noroeste 35 Norte 0 -- -- 29
2019-03-27 16:00:00 17.3 17 Norte 31 Noroeste 0 -- -- 27
2019-03-27 15:00:00 17.8 17 Noroeste 31 Norte 0 -- -- 26
2019-03-27 14:00:00 17.8 10 Noroeste 26 Noroeste 0 -- -- 29
2019-03-27 13:00:00 16 8 Noroeste 21 Noroeste 0 -- -- 35
2019-03-27 12:00:00 13.5 9 Noroeste 18 Noroeste 0 -- -- 41
2019-03-27 11:00:00 11 9 Noroeste 18 Norte 0 -- -- 45
2019-03-27 10:00:00 9.6 5 Noroeste 10 Noroeste 0 -- -- 54
2019-03-27 09:00:00 7.6 5 Noroeste 9 Noroeste 0 -- -- 63
2019-03-27 08:00:00 3.3 0 Calma 9 Sudoeste 0 -- -- 80
2019-03-27 07:00:00 0.9 3 Sudoeste 13 Sudoeste 0 -- -- 79
2019-03-27 06:00:00 1.3 3 Sur 9 Sudoeste 0 -- -- 77
2019-03-27 05:00:00 2.1 5 Sur 11 Sur 0 -- -- 68
2019-03-27 04:00:00 3.5 10 Sudoeste 15 Sudoeste 0 -- -- 60
2019-03-27 03:00:00 5.3 0 Calma 8 Oeste 0 -- -- 53
2019-03-27 02:00:00 5.6 0 Calma 10 Noroeste 0 -- -- 52
2019-03-27 01:00:00 6.3 4 Oeste 14 Oeste 0 -- -- 50
2019-03-27 00:00:00 6.9 8 Noroeste 16 Noroeste 0 -- -- 48